TAF Text Data
IDs:
Format:
Raw Decoded Include METAR

Data at: 0137 UTC 22 Jan 2020

METAR for:KTOB (Dodge Center Arpt, MN, US)
Text:KTOB 220135Z AUTO 17022G28KT 4SM BR OVC007 M11/M13 A3009 RMK AO2
Temperature:-11.0°C ( 12°F)
Dewpoint:-13.0°C ( 9°F) [RH = 85%]
Pressure (altimeter):30.09 inches Hg (1019.0 mb)
Winds:from the S (170 degrees) at 25 MPH (22 knots; 11.3 m/s) gusting to 32 MPH (28 knots; 14.4 m/s)
Visibility: 4 sm ( 6 km)
Ceiling:700 feet AGL
Clouds: overcast cloud deck at 700 feet AGL
Weather:BR (mist)
QC Flag:automated observation with no human augmentation

TAF for:KTOB (Dodge Center Arpt, MN, US)
Text:No data found